sensor_id;sensor_type;location;lat;lon;timestamp;P1;durP1;ratioP1;P2;durP2;ratioP2
15633;SDS011;14654;48.898;8.308;2023-05-07T00:01:00;2.43;;;1.80;;
15633;SDS011;14654;48.898;8.308;2023-05-07T00:03:26;2.20;;;2.00;;
15633;SDS011;14654;48.898;8.308;2023-05-07T00:05:52;2.43;;;1.73;;
15633;SDS011;14654;48.898;8.308;2023-05-07T00:08:18;2.03;;;1.77;;
15633;SDS011;14654;48.898;8.308;2023-05-07T00:10:43;1.70;;;1.53;;
15633;SDS011;14654;48.898;8.308;2023-05-07T00:13:09;1.70;;;1.60;;
15633;SDS011;14654;48.898;8.308;2023-05-07T00:15:35;1.70;;;1.60;;
15633;SDS011;14654;48.898;8.308;2023-05-07T00:18:00;2.00;;;1.73;;
15633;SDS011;14654;48.898;8.308;2023-05-07T00:20:25;1.70;;;1.60;;
15633;SDS011;14654;48.898;8.308;2023-05-07T00:22:51;1.90;;;1.80;;
15633;SDS011;14654;48.898;8.308;2023-05-07T00:25:16;1.90;;;1.70;;
15633;SDS011;14654;48.898;8.308;2023-05-07T00:27:41;2.07;;;1.90;;
15633;SDS011;14654;48.898;8.308;2023-05-07T00:30:07;2.10;;;1.90;;
15633;SDS011;14654;48.898;8.308;2023-05-07T00:32:33;2.17;;;1.97;;
15633;SDS011;14654;48.898;8.308;2023-05-07T00:34:58;2.03;;;1.93;;
15633;SDS011;14654;48.898;8.308;2023-05-07T00:37:24;1.90;;;1.80;;
15633;SDS011;14654;48.898;8.308;2023-05-07T00:39:49;2.10;;;1.90;;
15633;SDS011;14654;48.898;8.308;2023-05-07T00:42:14;1.70;;;1.60;;
15633;SDS011;14654;48.898;8.308;2023-05-07T00:44:41;1.90;;;1.80;;
15633;SDS011;14654;48.898;8.308;2023-05-07T00:47:06;2.40;;;1.77;;
15633;SDS011;14654;48.898;8.308;2023-05-07T00:49:39;1.80;;;1.70;;
15633;SDS011;14654;48.898;8.308;2023-05-07T00:52:07;1.50;;;1.40;;
15633;SDS011;14654;48.898;8.308;2023-05-07T00:54:34;1.60;;;1.50;;
15633;SDS011;14654;48.898;8.308;2023-05-07T00:56:59;1.53;;;1.37;;
15633;SDS011;14654;48.898;8.308;2023-05-07T00:59:26;3.13;;;1.63;;
15633;SDS011;14654;48.898;8.308;2023-05-07T01:01:52;3.27;;;1.90;;
15633;SDS011;14654;48.898;8.308;2023-05-07T01:04:17;1.80;;;1.70;;
15633;SDS011;14654;48.898;8.308;2023-05-07T01:06:43;1.87;;;1.63;;
15633;SDS011;14654;48.898;8.308;2023-05-07T01:09:10;2.43;;;1.87;;
15633;SDS011;14654;48.898;8.308;2023-05-07T01:11:36;1.97;;;1.83;;
15633;SDS011;14654;48.898;8.308;2023-05-07T01:14:02;1.80;;;1.70;;
15633;SDS011;14654;48.898;8.308;2023-05-07T01:16:28;2.27;;;1.73;;
15633;SDS011;14654;48.898;8.308;2023-05-07T01:18:53;2.80;;;1.80;;
15633;SDS011;14654;48.898;8.308;2023-05-07T01:21:18;1.83;;;1.53;;
15633;SDS011;14654;48.898;8.308;2023-05-07T01:23:51;1.80;;;1.70;;
15633;SDS011;14654;48.898;8.308;2023-05-07T01:26:17;1.87;;;1.77;;
15633;SDS011;14654;48.898;8.308;2023-05-07T01:28:44;2.00;;;1.90;;
15633;SDS011;14654;48.898;8.308;2023-05-07T01:31:10;2.40;;;2.20;;
15633;SDS011;14654;48.898;8.308;2023-05-07T01:33:37;1.83;;;1.73;;
15633;SDS011;14654;48.898;8.308;2023-05-07T01:36:05;2.30;;;2.07;;
15633;SDS011;14654;48.898;8.308;2023-05-07T01:38:33;2.23;;;1.93;;
15633;SDS011;14654;48.898;8.308;2023-05-07T01:41:00;2.20;;;2.00;;
15633;SDS011;14654;48.898;8.308;2023-05-07T01:43:26;2.83;;;2.00;;
15633;SDS011;14654;48.898;8.308;2023-05-07T01:45:52;2.00;;;1.70;;
15633;SDS011;14654;48.898;8.308;2023-05-07T01:48:17;2.10;;;1.90;;
15633;SDS011;14654;48.898;8.308;2023-05-07T01:50:43;2.33;;;2.13;;
15633;SDS011;14654;48.898;8.308;2023-05-07T01:53:09;2.40;;;2.07;;
15633;SDS011;14654;48.898;8.308;2023-05-07T01:55:35;2.27;;;2.00;;
15633;SDS011;14654;48.898;8.308;2023-05-07T01:58:01;3.10;;;2.03;;
15633;SDS011;14654;48.898;8.308;2023-05-07T02:00:27;2.23;;;2.10;;
15633;SDS011;14654;48.898;8.308;2023-05-07T02:02:52;2.10;;;1.90;;
15633;SDS011;14654;48.898;8.308;2023-05-07T02:05:18;2.43;;;2.10;;
15633;SDS011;14654;48.898;8.308;2023-05-07T02:07:43;2.43;;;1.87;;
15633;SDS011;14654;48.898;8.308;2023-05-07T02:10:09;2.40;;;2.20;;
15633;SDS011;14654;48.898;8.308;2023-05-07T02:12:34;2.43;;;1.97;;
15633;SDS011;14654;48.898;8.308;2023-05-07T02:15:00;2.30;;;2.10;;
15633;SDS011;14654;48.898;8.308;2023-05-07T02:17:25;2.10;;;1.93;;
15633;SDS011;14654;48.898;8.308;2023-05-07T02:19:51;2.10;;;1.90;;
15633;SDS011;14654;48.898;8.308;2023-05-07T02:22:16;1.80;;;1.60;;
15633;SDS011;14654;48.898;8.308;2023-05-07T02:24:41;2.40;;;2.20;;
15633;SDS011;14654;48.898;8.308;2023-05-07T02:27:07;2.17;;;2.00;;
15633;SDS011;14654;48.898;8.308;2023-05-07T02:29:32;2.07;;;1.97;;
15633;SDS011;14654;48.898;8.308;2023-05-07T02:31:57;2.13;;;1.93;;
15633;SDS011;14654;48.898;8.308;2023-05-07T02:34:22;2.37;;;2.00;;
15633;SDS011;14654;48.898;8.308;2023-05-07T02:36:48;2.03;;;1.77;;
15633;SDS011;14654;48.898;8.308;2023-05-07T02:39:13;2.20;;;2.10;;
15633;SDS011;14654;48.898;8.308;2023-05-07T02:41:40;2.57;;;2.37;;
15633;SDS011;14654;48.898;8.308;2023-05-07T02:44:05;2.40;;;2.20;;
15633;SDS011;14654;48.898;8.308;2023-05-07T02:46:31;2.40;;;2.20;;
15633;SDS011;14654;48.898;8.308;2023-05-07T02:48:56;2.60;;;2.40;;
15633;SDS011;14654;48.898;8.308;2023-05-07T02:51:22;3.07;;;2.47;;
15633;SDS011;14654;48.898;8.308;2023-05-07T02:53:47;2.53;;;2.33;;
15633;SDS011;14654;48.898;8.308;2023-05-07T02:56:13;2.80;;;2.37;;
15633;SDS011;14654;48.898;8.308;2023-05-07T02:58:38;2.50;;;2.30;;
15633;SDS011;14654;48.898;8.308;2023-05-07T03:01:07;2.43;;;2.23;;
15633;SDS011;14654;48.898;8.308;2023-05-07T03:03:33;2.53;;;2.30;;
15633;SDS011;14654;48.898;8.308;2023-05-07T03:05:58;2.33;;;2.13;;
15633;SDS011;14654;48.898;8.308;2023-05-07T03:08:24;2.57;;;2.37;;
15633;SDS011;14654;48.898;8.308;2023-05-07T03:10:49;2.50;;;2.30;;
15633;SDS011;14654;48.898;8.308;2023-05-07T03:13:15;2.50;;;2.17;;
15633;SDS011;14654;48.898;8.308;2023-05-07T03:15:40;2.20;;;2.10;;
15633;SDS011;14654;48.898;8.308;2023-05-07T03:18:05;2.93;;;2.13;;
15633;SDS011;14654;48.898;8.308;2023-05-07T03:20:31;2.30;;;2.10;;
15633;SDS011;14654;48.898;8.308;2023-05-07T03:22:56;2.67;;;2.40;;
15633;SDS011;14654;48.898;8.308;2023-05-07T03:25:22;2.30;;;2.07;;
15633;SDS011;14654;48.898;8.308;2023-05-07T03:27:47;3.13;;;2.23;;
15633;SDS011;14654;48.898;8.308;2023-05-07T03:30:12;3.00;;;2.70;;
15633;SDS011;14654;48.898;8.308;2023-05-07T03:32:38;2.60;;;2.20;;
15633;SDS011;14654;48.898;8.308;2023-05-07T03:35:03;2.43;;;2.30;;
15633;SDS011;14654;48.898;8.308;2023-05-07T03:37:29;2.47;;;1.93;;
15633;SDS011;14654;48.898;8.308;2023-05-07T03:39:55;2.37;;;2.17;;
15633;SDS011;14654;48.898;8.308;2023-05-07T03:42:20;2.13;;;2.03;;
15633;SDS011;14654;48.898;8.308;2023-05-07T03:44:45;2.07;;;1.97;;
15633;SDS011;14654;48.898;8.308;2023-05-07T03:47:11;3.17;;;2.37;;
15633;SDS011;14654;48.898;8.308;2023-05-07T03:49:36;2.40;;;2.20;;
15633;SDS011;14654;48.898;8.308;2023-05-07T03:52:01;2.60;;;2.40;;
15633;SDS011;14654;48.898;8.308;2023-05-07T03:54:27;2.37;;;2.17;;
15633;SDS011;14654;48.898;8.308;2023-05-07T03:56:52;2.20;;;2.00;;
15633;SDS011;14654;48.898;8.308;2023-05-07T03:59:17;2.20;;;2.03;;
15633;SDS011;14654;48.898;8.308;2023-05-07T04:01:43;2.67;;;2.30;;
15633;SDS011;14654;48.898;8.308;2023-05-07T04:04:08;2.20;;;2.10;;
15633;SDS011;14654;48.898;8.308;2023-05-07T04:06:33;2.33;;;2.13;;
15633;SDS011;14654;48.898;8.308;2023-05-07T04:08:59;3.00;;;2.10;;
15633;SDS011;14654;48.898;8.308;2023-05-07T04:11:24;2.07;;;1.97;;
15633;SDS011;14654;48.898;8.308;2023-05-07T04:13:50;2.20;;;2.10;;
15633;SDS011;14654;48.898;8.308;2023-05-07T04:16:15;2.00;;;1.90;;
15633;SDS011;14654;48.898;8.308;2023-05-07T04:18:40;2.17;;;2.00;;
15633;SDS011;14654;48.898;8.308;2023-05-07T04:21:06;2.47;;;2.27;;
15633;SDS011;14654;48.898;8.308;2023-05-07T04:23:39;2.57;;;2.30;;
15633;SDS011;14654;48.898;8.308;2023-05-07T04:26:05;2.60;;;2.40;;
15633;SDS011;14654;48.898;8.308;2023-05-07T04:28:30;2.53;;;2.33;;
15633;SDS011;14654;48.898;8.308;2023-05-07T04:30:55;2.30;;;2.00;;
15633;SDS011;14654;48.898;8.308;2023-05-07T04:33:21;2.60;;;2.50;;
15633;SDS011;14654;48.898;8.308;2023-05-07T04:35:46;2.27;;;2.17;;
15633;SDS011;14654;48.898;8.308;2023-05-07T04:38:11;2.63;;;2.43;;
15633;SDS011;14654;48.898;8.308;2023-05-07T04:40:36;2.43;;;2.23;;
15633;SDS011;14654;48.898;8.308;2023-05-07T04:43:02;2.53;;;2.33;;
15633;SDS011;14654;48.898;8.308;2023-05-07T04:45:27;2.93;;;2.50;;
15633;SDS011;14654;48.898;8.308;2023-05-07T04:47:53;2.87;;;2.67;;
15633;SDS011;14654;48.898;8.308;2023-05-07T04:50:18;3.90;;;2.60;;
15633;SDS011;14654;48.898;8.308;2023-05-07T04:52:44;3.00;;;2.80;;
15633;SDS011;14654;48.898;8.308;2023-05-07T04:55:10;3.63;;;2.70;;
15633;SDS011;14654;48.898;8.308;2023-05-07T04:57:35;2.40;;;2.30;;
15633;SDS011;14654;48.898;8.308;2023-05-07T05:00:01;2.27;;;2.17;;
15633;SDS011;14654;48.898;8.308;2023-05-07T05:02:26;2.37;;;2.20;;
15633;SDS011;14654;48.898;8.308;2023-05-07T05:04:51;2.80;;;2.50;;
15633;SDS011;14654;48.898;8.308;2023-05-07T05:07:16;2.40;;;2.30;;
15633;SDS011;14654;48.898;8.308;2023-05-07T05:09:42;3.13;;;2.93;;
15633;SDS011;14654;48.898;8.308;2023-05-07T05:12:07;2.97;;;2.20;;
15633;SDS011;14654;48.898;8.308;2023-05-07T05:14:32;2.43;;;2.23;;
15633;SDS011;14654;48.898;8.308;2023-05-07T05:16:58;2.67;;;2.47;;
15633;SDS011;14654;48.898;8.308;2023-05-07T05:19:23;2.83;;;2.20;;
15633;SDS011;14654;48.898;8.308;2023-05-07T05:21:48;2.33;;;1.70;;
15633;SDS011;14654;48.898;8.308;2023-05-07T05:24:14;2.13;;;2.03;;
15633;SDS011;14654;48.898;8.308;2023-05-07T05:26:40;2.63;;;2.43;;
15633;SDS011;14654;48.898;8.308;2023-05-07T05:29:05;2.07;;;1.97;;
15633;SDS011;14654;48.898;8.308;2023-05-07T05:31:30;2.47;;;1.73;;
15633;SDS011;14654;48.898;8.308;2023-05-07T05:33:56;1.80;;;1.70;;
15633;SDS011;14654;48.898;8.308;2023-05-07T05:36:21;2.00;;;1.80;;
15633;SDS011;14654;48.898;8.308;2023-05-07T05:38:47;2.57;;;1.77;;
15633;SDS011;14654;48.898;8.308;2023-05-07T05:41:12;1.90;;;1.60;;
15633;SDS011;14654;48.898;8.308;2023-05-07T05:43:37;1.97;;;1.70;;
15633;SDS011;14654;48.898;8.308;2023-05-07T05:46:03;1.67;;;1.50;;
15633;SDS011;14654;48.898;8.308;2023-05-07T05:48:29;1.67;;;1.57;;
15633;SDS011;14654;48.898;8.308;2023-05-07T05:50:55;5.13;;;2.00;;
15633;SDS011;14654;48.898;8.308;2023-05-07T05:53:20;3.17;;;2.10;;
15633;SDS011;14654;48.898;8.308;2023-05-07T05:55:45;2.30;;;2.10;;
15633;SDS011;14654;48.898;8.308;2023-05-07T05:58:11;2.33;;;1.90;;
15633;SDS011;14654;48.898;8.308;2023-05-07T06:00:36;2.30;;;2.10;;
15633;SDS011;14654;48.898;8.308;2023-05-07T06:03:02;1.93;;;1.83;;
15633;SDS011;14654;48.898;8.308;2023-05-07T06:05:27;3.03;;;1.93;;
15633;SDS011;14654;48.898;8.308;2023-05-07T06:07:53;1.90;;;1.70;;
15633;SDS011;14654;48.898;8.308;2023-05-07T06:10:18;2.73;;;2.20;;
15633;SDS011;14654;48.898;8.308;2023-05-07T06:12:43;2.20;;;1.73;;
15633;SDS011;14654;48.898;8.308;2023-05-07T06:15:09;2.40;;;1.93;;
15633;SDS011;14654;48.898;8.308;2023-05-07T06:17:35;2.30;;;2.07;;
15633;SDS011;14654;48.898;8.308;2023-05-07T06:20:00;2.43;;;1.70;;
15633;SDS011;14654;48.898;8.308;2023-05-07T06:22:25;2.20;;;1.83;;
15633;SDS011;14654;48.898;8.308;2023-05-07T06:24:51;2.20;;;2.00;;
15633;SDS011;14654;48.898;8.308;2023-05-07T06:27:16;1.70;;;1.57;;
15633;SDS011;14654;48.898;8.308;2023-05-07T06:29:41;1.90;;;1.80;;
15633;SDS011;14654;48.898;8.308;2023-05-07T06:32:10;1.80;;;1.70;;
15633;SDS011;14654;48.898;8.308;2023-05-07T06:34:37;2.40;;;1.60;;
15633;SDS011;14654;48.898;8.308;2023-05-07T06:37:03;1.80;;;1.70;;
15633;SDS011;14654;48.898;8.308;2023-05-07T06:39:28;2.00;;;1.80;;
15633;SDS011;14654;48.898;8.308;2023-05-07T06:41:54;2.10;;;1.90;;
15633;SDS011;14654;48.898;8.308;2023-05-07T06:44:19;1.90;;;1.80;;
15633;SDS011;14654;48.898;8.308;2023-05-07T06:46:44;2.00;;;1.90;;
15633;SDS011;14654;48.898;8.308;2023-05-07T06:49:10;2.23;;;1.90;;
15633;SDS011;14654;48.898;8.308;2023-05-07T06:51:37;3.40;;;2.00;;
15633;SDS011;14654;48.898;8.308;2023-05-07T06:54:02;1.53;;;1.43;;
15633;SDS011;14654;48.898;8.308;2023-05-07T06:56:29;1.73;;;1.60;;
15633;SDS011;14654;48.898;8.308;2023-05-07T06:58:54;1.63;;;1.53;;
15633;SDS011;14654;48.898;8.308;2023-05-07T07:01:20;1.50;;;1.40;;
15633;SDS011;14654;48.898;8.308;2023-05-07T07:03:45;1.60;;;1.50;;
15633;SDS011;14654;48.898;8.308;2023-05-07T07:06:10;1.60;;;1.50;;
15633;SDS011;14654;48.898;8.308;2023-05-07T07:08:35;1.47;;;1.37;;
15633;SDS011;14654;48.898;8.308;2023-05-07T07:11:03;1.60;;;1.47;;
15633;SDS011;14654;48.898;8.308;2023-05-07T07:13:28;2.13;;;1.60;;
15633;SDS011;14654;48.898;8.308;2023-05-07T07:15:54;2.20;;;2.00;;
15633;SDS011;14654;48.898;8.308;2023-05-07T07:18:19;2.30;;;2.10;;
15633;SDS011;14654;48.898;8.308;2023-05-07T07:20:45;2.00;;;1.90;;
15633;SDS011;14654;48.898;8.308;2023-05-07T07:23:10;2.47;;;2.03;;
15633;SDS011;14654;48.898;8.308;2023-05-07T07:25:35;2.73;;;2.00;;
15633;SDS011;14654;48.898;8.308;2023-05-07T07:28:01;3.23;;;2.00;;
15633;SDS011;14654;48.898;8.308;2023-05-07T07:30:26;1.97;;;1.87;;
15633;SDS011;14654;48.898;8.308;2023-05-07T07:32:52;2.00;;;1.90;;
15633;SDS011;14654;48.898;8.308;2023-05-07T07:35:17;2.17;;;2.00;;
15633;SDS011;14654;48.898;8.308;2023-05-07T07:37:43;2.23;;;2.13;;
15633;SDS011;14654;48.898;8.308;2023-05-07T07:40:08;2.40;;;2.20;;
15633;SDS011;14654;48.898;8.308;2023-05-07T07:42:34;2.30;;;2.10;;
15633;SDS011;14654;48.898;8.308;2023-05-07T07:44:59;2.13;;;1.93;;
15633;SDS011;14654;48.898;8.308;2023-05-07T07:47:25;2.20;;;2.00;;
15633;SDS011;14654;48.898;8.308;2023-05-07T07:49:50;2.27;;;2.07;;
15633;SDS011;14654;48.898;8.308;2023-05-07T07:52:15;1.73;;;1.63;;
15633;SDS011;14654;48.898;8.308;2023-05-07T07:54:41;2.20;;;2.10;;
15633;SDS011;14654;48.898;8.308;2023-05-07T07:57:06;2.00;;;1.90;;
15633;SDS011;14654;48.898;8.308;2023-05-07T07:59:31;2.37;;;1.83;;
15633;SDS011;14654;48.898;8.308;2023-05-07T08:01:57;2.10;;;1.90;;
15633;SDS011;14654;48.898;8.308;2023-05-07T08:04:22;2.43;;;2.23;;
15633;SDS011;14654;48.898;8.308;2023-05-07T08:06:48;3.00;;;2.70;;
15633;SDS011;14654;48.898;8.308;2023-05-07T08:09:13;3.23;;;2.70;;
15633;SDS011;14654;48.898;8.308;2023-05-07T08:11:38;3.07;;;2.77;;
15633;SDS011;14654;48.898;8.308;2023-05-07T08:14:04;2.70;;;2.50;;
15633;SDS011;14654;48.898;8.308;2023-05-07T08:16:30;3.10;;;2.90;;
15633;SDS011;14654;48.898;8.308;2023-05-07T08:18:55;3.30;;;3.00;;
15633;SDS011;14654;48.898;8.308;2023-05-07T08:21:21;3.60;;;3.10;;
15633;SDS011;14654;48.898;8.308;2023-05-07T08:23:47;2.80;;;2.60;;
15633;SDS011;14654;48.898;8.308;2023-05-07T08:26:12;3.30;;;2.80;;
15633;SDS011;14654;48.898;8.308;2023-05-07T08:28:37;2.97;;;2.77;;
15633;SDS011;14654;48.898;8.308;2023-05-07T08:31:04;3.63;;;3.33;;
15633;SDS011;14654;48.898;8.308;2023-05-07T08:33:29;3.30;;;3.10;;
15633;SDS011;14654;48.898;8.308;2023-05-07T08:35:55;3.23;;;2.90;;
15633;SDS011;14654;48.898;8.308;2023-05-07T08:38:20;2.77;;;2.57;;
15633;SDS011;14654;48.898;8.308;2023-05-07T08:40:45;3.77;;;2.73;;
15633;SDS011;14654;48.898;8.308;2023-05-07T08:43:14;3.73;;;3.43;;
15633;SDS011;14654;48.898;8.308;2023-05-07T08:45:40;3.23;;;3.03;;
15633;SDS011;14654;48.898;8.308;2023-05-07T08:48:15;3.47;;;3.17;;
15633;SDS011;14654;48.898;8.308;2023-05-07T08:50:42;3.00;;;2.80;;
15633;SDS011;14654;48.898;8.308;2023-05-07T08:53:07;3.60;;;3.30;;
15633;SDS011;14654;48.898;8.308;2023-05-07T08:55:33;3.10;;;2.90;;
15633;SDS011;14654;48.898;8.308;2023-05-07T08:57:58;2.70;;;2.50;;
15633;SDS011;14654;48.898;8.308;2023-05-07T09:00:24;3.07;;;2.60;;
15633;SDS011;14654;48.898;8.308;2023-05-07T09:02:50;3.33;;;3.00;;
15633;SDS011;14654;48.898;8.308;2023-05-07T09:05:15;2.87;;;2.67;;
15633;SDS011;14654;48.898;8.308;2023-05-07T09:07:41;2.90;;;2.50;;
15633;SDS011;14654;48.898;8.308;2023-05-07T09:10:06;3.20;;;3.00;;
15633;SDS011;14654;48.898;8.308;2023-05-07T09:12:32;2.77;;;2.57;;
15633;SDS011;14654;48.898;8.308;2023-05-07T09:14:58;3.53;;;3.23;;
15633;SDS011;14654;48.898;8.308;2023-05-07T09:17:24;4.43;;;4.00;;
15633;SDS011;14654;48.898;8.308;2023-05-07T09:19:49;3.57;;;3.00;;
15633;SDS011;14654;48.898;8.308;2023-05-07T09:22:15;3.00;;;2.70;;
15633;SDS011;14654;48.898;8.308;2023-05-07T09:24:40;3.77;;;3.07;;
15633;SDS011;14654;48.898;8.308;2023-05-07T09:27:12;3.23;;;2.93;;
15633;SDS011;14654;48.898;8.308;2023-05-07T09:29:38;3.60;;;3.30;;
15633;SDS011;14654;48.898;8.308;2023-05-07T09:32:07;3.93;;;3.03;;
15633;SDS011;14654;48.898;8.308;2023-05-07T09:34:33;3.20;;;2.90;;
15633;SDS011;14654;48.898;8.308;2023-05-07T09:37:03;3.00;;;2.50;;
15633;SDS011;14654;48.898;8.308;2023-05-07T09:39:42;3.77;;;2.80;;
15633;SDS011;14654;48.898;8.308;2023-05-07T09:42:11;2.97;;;2.70;;
15633;SDS011;14654;48.898;8.308;2023-05-07T09:44:38;2.77;;;2.53;;
15633;SDS011;14654;48.898;8.308;2023-05-07T09:47:06;2.70;;;2.50;;
15633;SDS011;14654;48.898;8.308;2023-05-07T09:49:36;2.40;;;2.20;;
15633;SDS011;14654;48.898;8.308;2023-05-07T09:52:04;2.57;;;2.37;;
15633;SDS011;14654;48.898;8.308;2023-05-07T09:54:31;3.00;;;2.80;;
15633;SDS011;14654;48.898;8.308;2023-05-07T09:56:58;2.90;;;2.70;;
15633;SDS011;14654;48.898;8.308;2023-05-07T09:59:27;3.30;;;3.10;;
15633;SDS011;14654;48.898;8.308;2023-05-07T10:01:53;3.23;;;3.03;;
15633;SDS011;14654;48.898;8.308;2023-05-07T10:04:22;2.67;;;2.47;;
15633;SDS011;14654;48.898;8.308;2023-05-07T10:06:48;2.63;;;2.33;;
15633;SDS011;14654;48.898;8.308;2023-05-07T10:09:13;2.90;;;2.60;;
15633;SDS011;14654;48.898;8.308;2023-05-07T10:11:40;2.80;;;2.60;;
15633;SDS011;14654;48.898;8.308;2023-05-07T10:14:06;2.90;;;2.70;;
15633;SDS011;14654;48.898;8.308;2023-05-07T10:16:32;3.03;;;2.10;;
15633;SDS011;14654;48.898;8.308;2023-05-07T10:19:04;2.20;;;2.10;;
15633;SDS011;14654;48.898;8.308;2023-05-07T10:21:30;2.20;;;2.00;;
15633;SDS011;14654;48.898;8.308;2023-05-07T10:24:01;2.27;;;2.07;;
15633;SDS011;14654;48.898;8.308;2023-05-07T10:26:31;2.40;;;2.30;;
15633;SDS011;14654;48.898;8.308;2023-05-07T10:29:05;2.40;;;2.20;;
15633;SDS011;14654;48.898;8.308;2023-05-07T10:34:20;2.73;;;2.20;;
15633;SDS011;14654;48.898;8.308;2023-05-07T10:36:49;2.10;;;2.00;;
15633;SDS011;14654;48.898;8.308;2023-05-07T10:39:16;2.27;;;2.07;;
15633;SDS011;14654;48.898;8.308;2023-05-07T10:41:44;2.10;;;1.90;;
15633;SDS011;14654;48.898;8.308;2023-05-07T10:44:10;2.80;;;2.03;;
15633;SDS011;14654;48.898;8.308;2023-05-07T10:46:36;1.80;;;1.70;;
15633;SDS011;14654;48.898;8.308;2023-05-07T10:51:28;2.10;;;1.80;;
15633;SDS011;14654;48.898;8.308;2023-05-07T10:54:39;1.90;;;1.80;;
15633;SDS011;14654;48.898;8.308;2023-05-07T10:56:40;2.33;;;2.10;;
15633;SDS011;14654;48.898;8.308;2023-05-07T11:01:55;2.03;;;1.93;;
15633;SDS011;14654;48.898;8.308;2023-05-07T11:04:22;2.40;;;2.20;;
15633;SDS011;14654;48.898;8.308;2023-05-07T11:15:01;2.40;;;2.20;;
15633;SDS011;14654;48.898;8.308;2023-05-07T11:17:29;1.97;;;1.80;;
15633;SDS011;14654;48.898;8.308;2023-05-07T11:19:59;2.90;;;2.00;;
15633;SDS011;14654;48.898;8.308;2023-05-07T11:25:01;2.40;;;2.20;;
15633;SDS011;14654;48.898;8.308;2023-05-07T11:27:27;2.37;;;1.80;;
15633;SDS011;14654;48.898;8.308;2023-05-07T11:29:54;1.90;;;1.80;;
15633;SDS011;14654;48.898;8.308;2023-05-07T11:32:22;1.70;;;1.60;;
15633;SDS011;14654;48.898;8.308;2023-05-07T11:34:55;2.97;;;2.17;;
15633;SDS011;14654;48.898;8.308;2023-05-07T11:37:23;1.83;;;1.73;;
15633;SDS011;14654;48.898;8.308;2023-05-07T11:39:50;2.00;;;1.90;;
15633;SDS011;14654;48.898;8.308;2023-05-07T11:42:29;1.63;;;1.53;;
15633;SDS011;14654;48.898;8.308;2023-05-07T11:44:56;1.63;;;1.53;;
15633;SDS011;14654;48.898;8.308;2023-05-07T11:47:22;2.07;;;1.87;;
15633;SDS011;14654;48.898;8.308;2023-05-07T11:49:49;2.17;;;1.93;;
15633;SDS011;14654;48.898;8.308;2023-05-07T11:52:15;1.83;;;1.73;;
15633;SDS011;14654;48.898;8.308;2023-05-07T11:54:41;2.20;;;2.10;;
15633;SDS011;14654;48.898;8.308;2023-05-07T11:57:23;3.00;;;2.17;;
15633;SDS011;14654;48.898;8.308;2023-05-07T11:59:56;2.17;;;1.63;;
15633;SDS011;14654;48.898;8.308;2023-05-07T12:02:23;1.70;;;1.60;;
15633;SDS011;14654;48.898;8.308;2023-05-07T12:04:53;2.30;;;1.90;;
15633;SDS011;14654;48.898;8.308;2023-05-07T12:07:19;2.30;;;2.10;;
15633;SDS011;14654;48.898;8.308;2023-05-07T12:09:45;2.00;;;1.90;;
15633;SDS011;14654;48.898;8.308;2023-05-07T12:12:11;2.10;;;2.00;;
15633;SDS011;14654;48.898;8.308;2023-05-07T12:14:40;2.20;;;2.00;;
15633;SDS011;14654;48.898;8.308;2023-05-07T12:17:07;2.20;;;2.00;;
15633;SDS011;14654;48.898;8.308;2023-05-07T12:19:34;2.10;;;1.90;;
15633;SDS011;14654;48.898;8.308;2023-05-07T12:22:02;1.90;;;1.77;;
15633;SDS011;14654;48.898;8.308;2023-05-07T12:24:28;2.00;;;1.90;;
15633;SDS011;14654;48.898;8.308;2023-05-07T12:26:54;2.20;;;1.80;;
15633;SDS011;14654;48.898;8.308;2023-05-07T12:29:22;2.00;;;1.77;;
15633;SDS011;14654;48.898;8.308;2023-05-07T12:31:49;2.00;;;1.90;;
15633;SDS011;14654;48.898;8.308;2023-05-07T12:34:15;1.90;;;1.80;;
15633;SDS011;14654;48.898;8.308;2023-05-07T12:36:41;2.13;;;1.93;;
15633;SDS011;14654;48.898;8.308;2023-05-07T12:39:06;2.20;;;1.87;;
15633;SDS011;14654;48.898;8.308;2023-05-07T12:41:55;2.00;;;1.80;;
15633;SDS011;14654;48.898;8.308;2023-05-07T12:44:29;2.00;;;1.90;;
15633;SDS011;14654;48.898;8.308;2023-05-07T12:46:55;1.87;;;1.77;;
15633;SDS011;14654;48.898;8.308;2023-05-07T12:49:21;2.10;;;1.90;;
15633;SDS011;14654;48.898;8.308;2023-05-07T12:51:47;1.73;;;1.63;;
15633;SDS011;14654;48.898;8.308;2023-05-07T12:54:14;1.83;;;1.73;;
15633;SDS011;14654;48.898;8.308;2023-05-07T12:56:59;2.03;;;1.87;;
15633;SDS011;14654;48.898;8.308;2023-05-07T12:59:38;2.20;;;2.00;;
15633;SDS011;14654;48.898;8.308;2023-05-07T13:02:07;1.57;;;1.43;;
15633;SDS011;14654;48.898;8.308;2023-05-07T13:04:33;6.07;;;2.00;;
15633;SDS011;14654;48.898;8.308;2023-05-07T13:07:00;2.70;;;1.87;;
15633;SDS011;14654;48.898;8.308;2023-05-07T13:09:25;2.37;;;2.10;;
15633;SDS011;14654;48.898;8.308;2023-05-07T13:11:51;2.10;;;2.00;;
15633;SDS011;14654;48.898;8.308;2023-05-07T13:14:16;2.20;;;1.90;;
15633;SDS011;14654;48.898;8.308;2023-05-07T13:16:42;2.57;;;2.03;;
15633;SDS011;14654;48.898;8.308;2023-05-07T13:19:07;1.93;;;1.80;;
15633;SDS011;14654;48.898;8.308;2023-05-07T13:21:33;2.63;;;2.37;;
15633;SDS011;14654;48.898;8.308;2023-05-07T13:23:58;2.20;;;2.10;;
15633;SDS011;14654;48.898;8.308;2023-05-07T13:26:24;2.07;;;1.93;;
15633;SDS011;14654;48.898;8.308;2023-05-07T13:28:50;2.40;;;2.20;;
15633;SDS011;14654;48.898;8.308;2023-05-07T13:31:16;2.73;;;2.53;;
15633;SDS011;14654;48.898;8.308;2023-05-07T13:33:42;2.90;;;2.53;;
15633;SDS011;14654;48.898;8.308;2023-05-07T13:36:07;3.57;;;3.27;;
15633;SDS011;14654;48.898;8.308;2023-05-07T13:38:32;3.90;;;3.50;;
15633;SDS011;14654;48.898;8.308;2023-05-07T13:40:58;3.10;;;2.90;;
15633;SDS011;14654;48.898;8.308;2023-05-07T13:43:24;3.10;;;2.90;;
15633;SDS011;14654;48.898;8.308;2023-05-07T13:45:49;4.87;;;3.90;;
15633;SDS011;14654;48.898;8.308;2023-05-07T13:48:15;4.17;;;3.77;;
15633;SDS011;14654;48.898;8.308;2023-05-07T13:50:40;4.03;;;3.50;;
15633;SDS011;14654;48.898;8.308;2023-05-07T13:53:05;4.30;;;3.90;;
15633;SDS011;14654;48.898;8.308;2023-05-07T13:55:31;4.03;;;3.63;;
15633;SDS011;14654;48.898;8.308;2023-05-07T13:57:57;4.40;;;4.00;;
15633;SDS011;14654;48.898;8.308;2023-05-07T14:00:26;5.63;;;3.40;;
15633;SDS011;14654;48.898;8.308;2023-05-07T14:02:53;2.60;;;2.40;;
15633;SDS011;14654;48.898;8.308;2023-05-07T14:05:18;2.50;;;1.50;;
15633;SDS011;14654;48.898;8.308;2023-05-07T14:07:44;1.50;;;1.40;;
15633;SDS011;14654;48.898;8.308;2023-05-07T14:10:10;1.80;;;1.20;;
15633;SDS011;14654;48.898;8.308;2023-05-07T14:12:36;1.83;;;0.90;;
15633;SDS011;14654;48.898;8.308;2023-05-07T14:15:02;1.07;;;0.90;;
15633;SDS011;14654;48.898;8.308;2023-05-07T14:17:28;1.87;;;1.27;;
15633;SDS011;14654;48.898;8.308;2023-05-07T14:19:53;1.57;;;0.90;;
15633;SDS011;14654;48.898;8.308;2023-05-07T14:22:20;1.43;;;0.87;;
15633;SDS011;14654;48.898;8.308;2023-05-07T14:24:46;2.13;;;1.20;;
15633;SDS011;14654;48.898;8.308;2023-05-07T14:27:12;1.80;;;0.90;;
15633;SDS011;14654;48.898;8.308;2023-05-07T14:29:37;1.30;;;1.20;;
15633;SDS011;14654;48.898;8.308;2023-05-07T14:32:03;2.20;;;1.10;;
15633;SDS011;14654;48.898;8.308;2023-05-07T14:34:28;1.60;;;1.00;;
15633;SDS011;14654;48.898;8.308;2023-05-07T14:36:54;1.30;;;1.20;;
15633;SDS011;14654;48.898;8.308;2023-05-07T14:39:20;1.33;;;1.10;;
15633;SDS011;14654;48.898;8.308;2023-05-07T14:41:45;0.80;;;0.80;;
15633;SDS011;14654;48.898;8.308;2023-05-07T14:44:10;1.20;;;1.10;;
15633;SDS011;14654;48.898;8.308;2023-05-07T14:46:36;2.20;;;0.90;;
15633;SDS011;14654;48.898;8.308;2023-05-07T14:49:02;1.53;;;1.00;;
15633;SDS011;14654;48.898;8.308;2023-05-07T14:51:27;1.13;;;1.03;;
15633;SDS011;14654;48.898;8.308;2023-05-07T14:53:53;1.13;;;0.97;;
15633;SDS011;14654;48.898;8.308;2023-05-07T14:56:19;1.00;;;0.97;;
15633;SDS011;14654;48.898;8.308;2023-05-07T14:58:46;1.30;;;1.00;;
15633;SDS011;14654;48.898;8.308;2023-05-07T15:01:13;1.10;;;1.00;;